createdAt,value
2018-03-26T00:00:05.202Z,997.84
2018-03-26T00:01:05.201Z,997.84
2018-03-26T00:02:05.190Z,997.84
2018-03-26T00:03:05.175Z,997.83
2018-03-26T00:04:05.204Z,997.86
2018-03-26T00:05:05.155Z,997.89
2018-03-26T00:06:05.122Z,997.90
2018-03-26T00:07:05.111Z,997.89
2018-03-26T00:08:05.088Z,997.90
2018-03-26T00:09:05.112Z,997.92
2018-03-26T00:10:05.079Z,997.94
2018-03-26T00:11:05.036Z,997.91
2018-03-26T00:12:05.054Z,997.93
2018-03-26T00:13:05.008Z,997.92
2018-03-26T00:14:05.262Z,997.93
2018-03-26T00:15:04.998Z,997.94
2018-03-26T00:16:04.996Z,997.94
2018-03-26T00:17:04.971Z,997.91
2018-03-26T00:18:04.961Z,997.94
2018-03-26T00:19:04.926Z,997.97
2018-03-26T00:20:04.928Z,997.97
2018-03-26T00:21:04.895Z,997.96
2018-03-26T00:22:04.908Z,997.95
2018-03-26T00:23:04.922Z,997.97
2018-03-26T00:24:04.848Z,997.97
2018-03-26T00:25:04.861Z,997.95
2018-03-26T00:26:04.851Z,997.95
2018-03-26T00:27:04.803Z,997.95
2018-03-26T00:28:04.807Z,997.92
2018-03-26T00:29:04.782Z,997.96
2018-03-26T00:30:04.765Z,997.94
2018-03-26T00:31:04.772Z,997.94
2018-03-26T00:32:04.724Z,997.93
2018-03-26T00:33:04.721Z,997.94
2018-03-26T00:34:04.712Z,997.98
2018-03-26T00:35:04.780Z,997.91
2018-03-26T00:36:04.673Z,997.97
2018-03-26T00:37:04.666Z,997.96
2018-03-26T00:38:04.666Z,997.92
2018-03-26T00:39:04.636Z,997.93
2018-03-26T00:40:04.613Z,997.94
2018-03-26T00:41:04.639Z,997.92
2018-03-26T00:42:04.587Z,997.91
2018-03-26T00:43:04.582Z,997.92
2018-03-26T00:44:04.581Z,997.94
2018-03-26T00:45:04.599Z,997.91
2018-03-26T00:46:04.525Z,997.91
2018-03-26T00:47:04.500Z,997.90
2018-03-26T00:48:04.477Z,997.91
2018-03-26T00:49:04.472Z,997.94
2018-03-26T00:50:04.453Z,997.96
2018-03-26T00:51:04.502Z,997.92
2018-03-26T00:52:04.440Z,997.93
2018-03-26T00:53:04.408Z,997.97
2018-03-26T00:54:04.401Z,997.95
2018-03-26T00:55:04.403Z,997.96
2018-03-26T00:56:04.370Z,997.97
2018-03-26T00:57:04.389Z,997.99
2018-03-26T00:58:04.342Z,998.00
2018-03-26T00:59:04.324Z,997.97
2018-03-26T01:00:04.328Z,997.97
2018-03-26T01:01:04.306Z,997.99
2018-03-26T01:02:04.333Z,997.92
2018-03-26T01:03:04.274Z,998.00
2018-03-26T01:04:04.240Z,997.98
2018-03-26T01:05:04.234Z,997.99
2018-03-26T01:06:04.220Z,997.99
2018-03-26T01:07:04.265Z,997.98
2018-03-26T01:08:04.184Z,998.00
2018-03-26T01:09:04.174Z,998.02
2018-03-26T01:10:04.154Z,998.04
2018-03-26T01:11:04.150Z,998.03
2018-03-26T01:12:04.186Z,998.06
2018-03-26T01:13:04.122Z,998.05
2018-03-26T01:14:04.110Z,998.10
2018-03-26T01:15:04.099Z,998.09
2018-03-26T01:16:04.060Z,998.07
2018-03-26T01:17:04.052Z,998.11
2018-03-26T01:18:04.074Z,998.12
2018-03-26T01:19:04.031Z,998.09
2018-03-26T01:20:03.999Z,998.08
2018-03-26T01:21:03.987Z,998.15
2018-03-26T01:22:03.979Z,998.15
2018-03-26T01:23:04.006Z,998.16
2018-03-26T01:24:03.968Z,998.15
2018-03-26T01:25:03.935Z,998.21
2018-03-26T01:26:03.920Z,998.21
2018-03-26T01:27:03.922Z,998.16
2018-03-26T01:28:03.938Z,998.19
2018-03-26T01:29:03.873Z,998.20
2018-03-26T01:30:03.844Z,998.20
2018-03-26T01:31:03.836Z,998.21
2018-03-26T01:32:03.832Z,998.22
2018-03-26T01:33:03.799Z,998.24
2018-03-26T01:34:03.799Z,998.22
2018-03-26T01:35:03.822Z,998.27
2018-03-26T01:36:03.850Z,998.27
2018-03-26T01:37:03.743Z,998.30
2018-03-26T01:38:03.745Z,998.30
2018-03-26T01:39:03.711Z,998.31
2018-03-26T01:40:03.685Z,998.28
2018-03-26T01:41:03.698Z,998.34
2018-03-26T01:42:03.664Z,998.31
2018-03-26T01:43:03.806Z,998.33
2018-03-26T01:44:03.634Z,998.35
2018-03-26T01:45:03.632Z,998.36
2018-03-26T01:46:03.603Z,998.35
2018-03-26T01:47:03.593Z,998.33
2018-03-26T01:48:03.569Z,998.36
2018-03-26T01:49:03.609Z,998.37
2018-03-26T01:50:03.565Z,998.39
2018-03-26T01:51:03.552Z,998.42
2018-03-26T01:52:03.570Z,998.43
2018-03-26T01:53:03.509Z,998.37
2018-03-26T01:54:03.486Z,998.44
2018-03-26T01:55:03.467Z,998.36
2018-03-26T01:56:03.461Z,998.40
2018-03-26T01:57:03.509Z,998.38
2018-03-26T01:58:03.422Z,998.43
2018-03-26T01:59:03.430Z,998.43
2018-03-26T02:00:03.382Z,998.43
2018-03-26T02:01:03.377Z,998.43
2018-03-26T02:02:03.359Z,998.44
2018-03-26T02:03:03.416Z,998.43
2018-03-26T02:04:03.352Z,998.42
2018-03-26T02:05:03.319Z,998.46
2018-03-26T02:06:03.315Z,998.44
2018-03-26T02:07:03.282Z,998.45
2018-03-26T02:08:03.263Z,998.49
2018-03-26T02:09:03.248Z,998.47
2018-03-26T02:10:03.234Z,998.45
2018-03-26T02:11:03.214Z,998.49
2018-03-26T02:12:03.207Z,998.49
2018-03-26T02:13:03.194Z,998.50
2018-03-26T02:14:03.205Z,998.53
2018-03-26T02:15:03.157Z,998.55
2018-03-26T02:16:03.165Z,998.55
2018-03-26T02:17:03.125Z,998.55
2018-03-26T02:18:03.111Z,998.57
2018-03-26T02:19:03.182Z,998.56
2018-03-26T02:20:03.099Z,998.55
2018-03-26T02:21:03.058Z,998.55
2018-03-26T02:22:03.040Z,998.55
2018-03-26T02:23:03.061Z,998.56
2018-03-26T02:24:03.076Z,998.58
2018-03-26T02:25:03.016Z,998.57
2018-03-26T02:26:02.976Z,998.61
2018-03-26T02:27:02.993Z,998.62
2018-03-26T02:28:02.960Z,998.62
2018-03-26T02:29:02.933Z,998.66
2018-03-26T02:30:02.956Z,998.67
2018-03-26T02:31:02.957Z,998.63
2018-03-26T02:32:02.924Z,998.63
2018-03-26T02:33:02.879Z,998.63
2018-03-26T02:34:02.863Z,998.66
2018-03-26T02:35:02.842Z,998.65
2018-03-26T02:36:02.828Z,998.65
2018-03-26T02:37:03.164Z,998.66
2018-03-26T02:38:02.829Z,998.69
2018-03-26T02:39:02.787Z,998.70
2018-03-26T02:40:02.776Z,998.70
2018-03-26T02:41:02.777Z,998.68
2018-03-26T02:42:02.735Z,998.67
2018-03-26T02:43:02.749Z,998.71
2018-03-26T02:44:02.730Z,998.67
2018-03-26T02:45:02.745Z,998.70
2018-03-26T02:46:02.681Z,998.66
2018-03-26T02:47:02.719Z,998.70
2018-03-26T02:48:02.637Z,998.70
2018-03-26T02:49:02.647Z,998.67
2018-03-26T02:50:02.615Z,998.70
2018-03-26T02:51:02.621Z,998.71
2018-03-26T02:52:02.580Z,998.74
2018-03-26T02:53:02.572Z,998.72
2018-03-26T02:54:02.794Z,998.75
2018-03-26T02:55:02.546Z,998.75
2018-03-26T02:56:02.549Z,998.77
2018-03-26T02:57:02.514Z,998.77
2018-03-26T02:58:02.487Z,998.78
2018-03-26T02:59:02.469Z,998.79
2018-03-26T03:00:02.538Z,998.80
2018-03-26T03:01:02.448Z,998.78
2018-03-26T03:02:02.428Z,998.77
2018-03-26T03:03:02.411Z,998.84
2018-03-26T03:04:02.411Z,998.87
2018-03-26T03:05:02.390Z,998.86
2018-03-26T03:06:02.403Z,998.84
2018-03-26T03:07:02.353Z,998.90
2018-03-26T03:08:02.349Z,998.91
2018-03-26T03:09:02.320Z,998.89
2018-03-26T03:10:02.299Z,998.92
2018-03-26T03:11:02.333Z,998.87
2018-03-26T03:12:02.258Z,998.90
2018-03-26T03:13:02.260Z,998.88
2018-03-26T03:14:02.279Z,998.89
2018-03-26T03:15:02.229Z,998.89
2018-03-26T03:16:02.210Z,998.85
2018-03-26T03:17:02.304Z,998.89
2018-03-26T03:18:02.162Z,998.90
2018-03-26T03:19:02.155Z,998.85
2018-03-26T03:20:02.149Z,998.86
2018-03-26T03:21:02.191Z,998.85
2018-03-26T03:22:02.104Z,998.83
2018-03-26T03:23:02.084Z,998.87
2018-03-26T03:24:02.072Z,998.90
2018-03-26T03:25:02.080Z,998.89
2018-03-26T03:26:02.065Z,998.89
2018-03-26T03:27:02.096Z,998.88
2018-03-26T03:28:02.010Z,998.89
2018-03-26T03:29:01.992Z,998.91
2018-03-26T03:30:01.998Z,998.93
2018-03-26T03:31:01.968Z,998.91
2018-03-26T03:32:02.023Z,998.92
2018-03-26T03:33:01.945Z,998.95
2018-03-26T03:34:01.920Z,998.95
2018-03-26T03:35:01.895Z,998.93
2018-03-26T03:36:01.887Z,998.93
2018-03-26T03:37:01.883Z,998.92
2018-03-26T03:38:01.880Z,998.90
2018-03-26T03:39:01.827Z,998.89
2018-03-26T03:40:01.876Z,998.88
2018-03-26T03:41:01.801Z,998.90
2018-03-26T03:42:01.789Z,998.91
2018-03-26T03:43:01.794Z,998.92
2018-03-26T03:44:01.751Z,998.92
2018-03-26T03:45:01.949Z,998.90
2018-03-26T03:46:01.778Z,998.91
2018-03-26T03:47:01.791Z,998.90
2018-03-26T03:48:01.705Z,998.89
2018-03-26T03:49:01.708Z,998.91
2018-03-26T03:50:01.663Z,998.90
2018-03-26T03:51:01.652Z,998.91
2018-03-26T03:52:01.658Z,998.91
2018-03-26T03:53:01.607Z,998.89
2018-03-26T03:54:01.585Z,998.92
2018-03-26T03:55:01.589Z,998.89
2018-03-26T03:56:01.581Z,998.89
2018-03-26T03:57:01.556Z,998.90
2018-03-26T03:58:01.537Z,998.90
2018-03-26T03:59:01.513Z,998.92
2018-03-26T04:00:01.501Z,998.92
2018-03-26T04:01:01.472Z,998.93
2018-03-26T04:02:01.499Z,998.94
2018-03-26T04:03:01.474Z,998.95
2018-03-26T04:04:01.450Z,998.93
2018-03-26T04:05:01.426Z,998.99
2018-03-26T04:06:01.399Z,998.98
2018-03-26T04:07:01.455Z,998.95
2018-03-26T04:08:01.362Z,998.96
2018-03-26T04:09:01.344Z,998.93
2018-03-26T04:10:01.326Z,998.97
2018-03-26T04:11:01.305Z,999.01
2018-03-26T04:12:01.303Z,999.02
2018-03-26T04:13:01.329Z,999.03
2018-03-26T04:14:01.289Z,999.04
2018-03-26T04:15:01.267Z,999.06
2018-03-26T04:16:01.247Z,999.04
2018-03-26T04:17:01.265Z,999.01
2018-03-26T04:18:01.265Z,999.02
2018-03-26T04:19:01.198Z,999.00
2018-03-26T04:20:01.161Z,999.00
2018-03-26T04:21:01.139Z,998.97
2018-03-26T04:22:01.179Z,999.02
2018-03-26T04:23:01.118Z,999.00
2018-03-26T04:24:01.092Z,999.02
2018-03-26T04:25:01.071Z,999.03
2018-03-26T04:26:01.100Z,999.04
2018-03-26T04:27:01.127Z,999.03
2018-03-26T04:28:01.031Z,999.02
2018-03-26T04:29:01.020Z,999.05
2018-03-26T04:30:01.030Z,999.02
2018-03-26T04:31:01.002Z,999.02
2018-03-26T04:32:00.973Z,999.03
2018-03-26T04:33:00.991Z,999.03
2018-03-26T04:34:00.942Z,999.05
2018-03-26T04:35:01.089Z,999.05
2018-03-26T04:36:37.031Z,999.06
2018-03-26T04:37:01.066Z,999.03
2018-03-26T04:38:00.996Z,999.04
2018-03-26T08:51:14.098Z,1001.58
2018-03-26T08:52:14.046Z,1001.56
2018-03-26T08:53:14.007Z,1001.57
2018-03-26T08:54:14.048Z,1001.59
2018-03-26T08:55:14.309Z,1001.63
2018-03-26T08:56:14.102Z,1001.58
2018-03-26T08:57:13.936Z,1001.59
2018-03-26T08:58:13.960Z,1001.59
2018-03-26T08:59:14.096Z,1001.56
2018-03-26T09:35:42.838Z,1001.65
2018-03-26T09:36:15.755Z,1001.68
2018-03-26T09:37:15.698Z,1001.67
2018-03-26T09:38:15.764Z,1001.67
2018-03-26T09:39:15.809Z,1001.64
2018-03-26T09:40:15.689Z,1001.67
2018-03-26T09:41:15.686Z,1001.65
2018-03-26T09:42:15.689Z,1001.71
2018-03-26T09:43:16.347Z,1001.70
2018-03-26T09:44:15.700Z,1001.71
2018-03-26T09:45:15.613Z,1001.72
2018-03-26T09:46:15.658Z,1001.73
2018-03-26T09:55:32.765Z,1001.71
2018-03-26T09:56:05.631Z,1001.72
2018-03-26T10:34:24.278Z,1002.05
2018-03-26T10:35:23.136Z,1002.03
2018-03-26T10:36:23.123Z,1002.06
2018-03-26T10:37:23.175Z,1002.09
2018-03-26T10:38:23.162Z,1002.11
2018-03-26T10:39:23.122Z,1002.10
2018-03-26T10:40:23.727Z,1002.08
2018-03-26T10:41:23.110Z,1002.09
2018-03-26T10:42:23.044Z,1002.09
2018-03-26T10:43:23.078Z,1002.09
2018-03-26T10:44:23.292Z,1002.03
2018-03-26T10:45:23.044Z,1002.06
2018-03-26T10:46:23.860Z,1002.06
2018-03-26T10:47:23.018Z,1002.09
2018-03-26T10:48:23.071Z,1002.05
2018-03-26T10:49:23.077Z,1002.05
2018-03-26T10:50:22.968Z,1002.07
2018-03-26T10:51:23.042Z,1002.08
2018-03-26T10:52:22.962Z,1002.09
2018-03-26T10:53:22.968Z,1002.14
2018-03-26T10:54:23.367Z,1002.10
2018-03-26T10:55:22.868Z,1002.09
2018-03-26T10:56:22.870Z,1002.05
2018-03-26T10:57:22.888Z,1002.09
2018-03-26T10:58:23.454Z,1002.07
2018-03-26T10:59:22.876Z,1002.12
2018-03-26T11:00:22.881Z,1002.12
2018-03-26T11:01:22.823Z,1002.15
2018-03-26T11:02:22.918Z,1002.16
2018-03-26T11:03:22.789Z,1002.15
2018-03-26T11:04:22.804Z,1002.15
2018-03-26T11:05:22.768Z,1002.16
2018-03-26T11:06:22.840Z,1002.18
2018-03-26T11:07:22.737Z,1002.12
2018-03-26T11:08:22.866Z,1002.19
2018-03-26T11:09:22.707Z,1002.18
2018-03-26T11:10:22.692Z,1002.21
2018-03-26T11:11:22.983Z,1002.21
2018-03-26T11:12:22.689Z,1002.27
2018-03-26T11:13:22.652Z,1002.32
2018-03-26T11:14:22.645Z,1002.42
2018-03-26T11:15:22.651Z,1002.42
2018-03-26T11:16:22.626Z,1002.42
2018-03-26T11:17:22.633Z,1002.31
2018-03-26T11:18:22.607Z,1002.36
2018-03-26T11:19:22.572Z,1002.47
2018-03-26T11:20:23.445Z,1002.48
2018-03-26T11:21:22.554Z,1002.43
2018-03-26T11:22:22.884Z,1002.44
2018-03-26T11:23:22.547Z,1002.37
2018-03-26T11:24:22.608Z,1002.38
2018-03-26T11:25:22.547Z,1002.52
2018-03-26T11:26:22.509Z,1002.66
2018-03-26T11:27:22.499Z,1002.53
2018-03-26T11:28:22.515Z,1002.37
2018-03-26T11:29:22.472Z,1002.38
2018-03-26T11:30:23.456Z,1002.46
2018-03-26T11:31:22.440Z,1002.40
2018-03-26T11:32:22.501Z,1002.34
2018-03-26T11:33:22.448Z,1002.42
2018-03-26T11:34:22.418Z,1002.46
2018-03-26T11:35:22.396Z,1002.40
2018-03-26T11:36:22.759Z,1002.41
2018-03-26T11:37:22.380Z,1002.42
2018-03-26T11:38:22.393Z,1002.43
2018-03-26T11:39:22.364Z,1002.41
2018-03-26T11:40:22.352Z,1002.49
2018-03-26T11:41:22.362Z,1002.50
2018-03-26T11:42:22.322Z,1002.45
2018-03-26T11:43:22.476Z,1002.43
2018-03-26T11:44:23.099Z,1002.43
2018-03-26T11:45:22.358Z,1002.46
2018-03-26T11:46:22.284Z,1002.51
2018-03-26T11:47:22.269Z,1002.38
2018-03-26T11:48:22.291Z,1002.52
2018-03-26T11:49:22.265Z,1002.47
2018-03-26T11:50:22.228Z,1002.45
2018-03-26T11:51:22.229Z,1002.44
2018-03-26T11:52:22.217Z,1002.47
2018-03-26T11:53:22.242Z,1002.50
2018-03-26T11:54:22.192Z,1002.55
2018-03-26T11:55:22.964Z,1002.46
2018-03-26T11:56:22.205Z,1002.46
2018-03-26T11:57:22.551Z,1002.43
2018-03-26T11:58:22.155Z,1002.51
2018-03-26T11:59:22.148Z,1002.57
2018-03-26T12:00:22.130Z,1002.73
2018-03-26T12:01:22.142Z,1002.79
2018-03-26T12:02:22.110Z,1002.81
2018-03-26T12:03:22.165Z,1002.78
2018-03-26T12:04:22.167Z,1002.75
2018-03-26T12:05:22.074Z,1002.67
2018-03-26T12:06:22.059Z,1002.65
2018-03-26T12:07:22.122Z,1002.79
2018-03-26T12:08:22.096Z,1002.85
2018-03-26T12:09:22.056Z,1002.80
2018-03-26T12:10:22.064Z,1002.80
2018-03-26T12:11:22.059Z,1002.92
2018-03-26T12:12:22.219Z,1002.84
2018-03-26T12:13:22.010Z,1002.96
2018-03-26T12:14:22.063Z,1003.10
2018-03-26T12:15:21.981Z,1003.10
2018-03-26T12:16:22.085Z,1003.28
2018-03-26T12:17:21.968Z,1003.22
2018-03-26T12:18:21.965Z,1003.29
2018-03-26T12:19:22.149Z,1002.99
2018-03-26T12:20:22.035Z,1002.87
2018-03-26T12:21:21.938Z,1002.78
2018-03-26T12:22:21.961Z,1002.77
2018-03-26T12:23:21.923Z,1002.63
2018-03-26T12:24:21.932Z,1002.67
2018-03-26T12:25:21.969Z,1002.73
2018-03-26T12:26:21.973Z,1002.65
2018-03-26T12:27:21.930Z,1002.71
2018-03-26T12:28:22.401Z,1002.67
2018-03-26T12:29:21.907Z,1002.58
2018-03-26T12:30:21.921Z,1002.67
2018-03-26T12:31:22.575Z,1002.76
2018-03-26T12:32:21.888Z,1002.68
2018-03-26T12:33:21.927Z,1002.70
2018-03-26T12:34:22.246Z,1002.72
2018-03-26T12:35:21.851Z,1002.78
2018-03-26T12:36:21.844Z,1002.77
2018-03-26T12:37:21.843Z,1002.72
2018-03-26T12:38:21.825Z,1002.63
2018-03-26T12:39:22.290Z,1002.64
2018-03-26T12:40:21.815Z,1002.66
2018-03-26T12:41:21.819Z,1002.72
2018-03-26T12:42:22.367Z,1002.73
2018-03-26T12:43:21.983Z,1002.70
2018-03-26T12:44:21.788Z,1002.74
2018-03-26T12:45:21.807Z,1002.74
2018-03-26T12:46:21.883Z,1002.70
2018-03-26T12:47:22.188Z,1002.66
2018-03-26T12:48:21.815Z,1002.69
2018-03-26T12:49:22.001Z,1002.66
2018-03-26T12:50:21.914Z,1002.83
2018-03-26T12:51:21.960Z,1002.84
2018-03-26T12:52:21.729Z,1002.84
2018-03-26T12:53:21.726Z,1002.85
2018-03-26T12:54:21.727Z,1002.94
2018-03-26T12:55:21.725Z,1002.92
2018-03-26T12:56:21.799Z,1002.91
2018-03-26T12:57:21.704Z,1002.83
2018-03-26T12:58:21.680Z,1002.80
2018-03-26T12:59:21.795Z,1002.71
2018-03-26T13:00:21.680Z,1002.76
2018-03-26T13:01:21.682Z,1002.78
2018-03-26T13:02:21.656Z,1002.87
2018-03-26T13:03:21.654Z,1002.81
2018-03-26T13:04:21.639Z,1002.79
2018-03-26T13:05:21.654Z,1002.77
2018-03-26T13:06:21.631Z,1002.71
2018-03-26T13:07:21.627Z,1002.70
2018-03-26T13:08:21.619Z,1002.72
2018-03-26T13:09:21.680Z,1002.74
2018-03-26T13:10:21.609Z,1002.72
2018-03-26T13:11:21.769Z,1002.70
2018-03-26T13:12:22.078Z,1002.79
2018-03-26T13:13:21.587Z,1002.86
2018-03-26T13:14:21.551Z,1002.88
2018-03-26T13:15:22.150Z,1002.96
2018-03-26T13:16:21.560Z,1002.90
2018-03-26T13:17:21.554Z,1002.92
2018-03-26T13:18:21.531Z,1003.02
2018-03-26T13:19:21.520Z,1003.06
2018-03-26T13:20:21.710Z,1003.05
2018-03-26T13:21:21.605Z,1003.07
2018-03-26T13:22:21.488Z,1003.13
2018-03-26T13:23:21.492Z,1003.13
2018-03-26T13:24:21.495Z,1003.08
2018-03-26T13:25:21.548Z,1003.02
2018-03-26T13:26:21.462Z,1003.06
2018-03-26T13:27:21.570Z,1002.89
2018-03-26T13:28:21.446Z,1002.90
2018-03-26T13:29:21.531Z,1002.98
2018-03-26T13:30:21.477Z,1002.86
2018-03-26T13:31:21.472Z,1002.89
2018-03-26T13:32:21.507Z,1002.83
2018-03-26T13:33:21.414Z,1002.91
2018-03-26T13:34:21.419Z,1002.84
2018-03-26T13:35:21.446Z,1002.83
2018-03-26T13:36:21.478Z,1002.88
2018-03-26T13:37:21.588Z,1002.89
2018-03-26T13:38:21.443Z,1002.89
2018-03-26T13:39:21.393Z,1002.94
2018-03-26T13:40:21.518Z,1002.91
2018-03-26T13:41:21.352Z,1002.93
2018-03-26T13:42:21.351Z,1002.94
2018-03-26T13:43:21.364Z,1002.85
2018-03-26T13:44:21.353Z,1003.00
2018-03-26T13:45:21.336Z,1003.08
2018-03-26T13:46:21.345Z,1003.20
2018-03-26T13:47:21.486Z,1003.18
2018-03-26T13:48:21.497Z,1003.14
2018-03-26T13:49:21.446Z,1003.12
2018-03-26T13:50:21.304Z,1003.13
2018-03-26T13:51:21.279Z,1003.15
2018-03-26T13:52:21.278Z,1003.12
2018-03-26T13:53:21.314Z,1003.19
2018-03-26T13:54:21.265Z,1003.31
2018-03-26T13:55:21.270Z,1003.10
2018-03-26T13:56:21.254Z,1003.10
2018-03-26T13:57:21.817Z,1003.22
2018-03-26T13:58:21.318Z,1003.31
2018-03-26T13:59:21.237Z,1003.25
2018-03-26T14:00:21.240Z,1003.14
2018-03-26T14:01:21.216Z,1003.19
2018-03-26T14:02:21.194Z,1003.28
2018-03-26T14:03:36.306Z,1003.31
2018-03-26T14:04:21.223Z,1003.08
2018-03-26T14:05:21.206Z,1003.20
2018-03-26T14:06:21.195Z,1003.19
2018-03-26T14:07:22.027Z,1003.29
2018-03-26T14:08:22.018Z,1003.28
2018-03-26T14:09:22.501Z,1003.25
2018-03-26T14:10:21.171Z,1003.21
2018-03-26T14:11:21.185Z,1003.22
2018-03-26T14:12:21.160Z,1003.40
2018-03-26T14:13:23.150Z,1003.52
2018-03-26T14:14:21.150Z,1003.48
2018-03-26T14:15:22.045Z,1003.34
2018-03-26T14:16:21.150Z,1002.85
2018-03-26T14:17:21.107Z,1003.16
2018-03-26T14:18:21.106Z,1003.15
2018-03-26T14:19:21.097Z,1003.42
2018-03-26T14:20:21.099Z,1003.76
2018-03-26T14:21:21.131Z,1004.01
2018-03-26T14:22:21.084Z,1004.12
2018-03-26T14:23:21.083Z,1004.14
2018-03-26T14:24:21.072Z,1004.34
2018-03-26T14:25:21.423Z,1004.47
2018-03-26T14:26:21.090Z,1004.52
2018-03-26T14:27:21.068Z,1004.66
2018-03-26T14:28:21.064Z,1004.71
2018-03-26T14:29:21.066Z,1004.78
2018-03-26T14:30:21.059Z,1004.77
2018-03-26T14:31:21.064Z,1004.90
2018-03-26T14:32:21.038Z,1004.67
2018-03-26T14:33:21.042Z,1004.30
2018-03-26T14:34:21.030Z,1004.25
2018-03-26T14:35:21.236Z,1003.73
2018-03-26T14:36:21.062Z,1004.18
2018-03-26T14:37:21.048Z,1004.28
2018-03-26T14:38:21.016Z,1004.08
2018-03-26T14:39:21.012Z,1003.12
2018-03-26T14:40:21.030Z,1003.08
2018-03-26T14:41:21.066Z,1003.08
2018-03-26T14:42:21.012Z,1003.07
2018-03-26T14:43:21.016Z,1004.38
2018-03-26T14:44:21.004Z,1004.03
2018-03-26T14:45:21.004Z,1004.63
2018-03-26T14:46:21.022Z,1003.48
2018-03-26T14:47:20.998Z,1003.76
2018-03-26T14:48:21.020Z,1003.09
2018-03-26T14:49:21.001Z,1003.05
2018-03-26T14:50:20.976Z,1004.19
2018-03-26T14:51:21.004Z,1003.84
2018-03-26T14:52:21.002Z,1004.10
2018-03-26T14:53:21.005Z,1004.26
2018-03-26T14:54:20.984Z,1003.10
2018-03-26T14:55:21.638Z,1003.28
2018-03-26T14:56:20.968Z,1003.69
2018-03-26T14:57:20.970Z,1003.41
2018-03-26T14:58:20.940Z,1003.17
2018-03-26T14:59:20.945Z,1003.94
2018-03-26T15:00:20.930Z,1004.10
2018-03-26T15:01:20.940Z,1004.02
2018-03-26T15:02:20.974Z,1003.99
2018-03-26T15:03:20.928Z,1004.02
2018-03-26T15:04:20.923Z,1003.57
2018-03-26T15:05:20.897Z,1003.80
2018-03-26T15:06:20.897Z,1003.80
2018-03-26T15:07:20.923Z,1003.82
2018-03-26T15:08:20.941Z,1003.91
2018-03-26T15:09:20.942Z,1003.76
2018-03-26T15:10:20.884Z,1003.42
2018-03-26T15:11:20.881Z,1003.27
2018-03-26T15:12:20.929Z,1003.67
2018-03-26T15:13:21.028Z,1003.72
2018-03-26T15:14:20.858Z,1003.80
2018-03-26T15:15:20.864Z,1003.34
2018-03-26T15:16:20.871Z,1003.74
2018-03-26T15:17:20.911Z,1003.60
2018-03-26T15:18:20.840Z,1003.75
2018-03-26T15:19:20.829Z,1003.64
2018-03-26T15:20:20.850Z,1003.43
2018-03-26T15:21:20.844Z,1003.24
2018-03-26T15:22:20.836Z,1003.25
2018-03-26T15:23:20.854Z,1003.25
2018-03-26T15:24:20.819Z,1003.56
2018-03-26T15:25:20.810Z,1003.63
2018-03-26T15:26:20.812Z,1003.28
2018-03-26T15:27:20.878Z,1003.49
2018-03-26T15:28:20.818Z,1003.21
2018-03-26T15:29:20.824Z,1003.34
2018-03-26T15:30:20.777Z,1003.20
2018-03-26T15:31:20.774Z,1003.22
2018-03-26T15:32:20.775Z,1003.13
2018-03-26T15:33:20.769Z,1003.21
2018-03-26T15:34:20.804Z,1003.20
2018-03-26T15:35:20.736Z,1003.10
2018-03-26T15:36:20.723Z,1003.08
2018-03-26T15:37:20.727Z,1003.12
2018-03-26T15:38:20.729Z,1003.21
2018-03-26T15:39:20.778Z,1003.03
2018-03-26T15:40:20.696Z,1003.40
2018-03-26T15:41:20.699Z,1003.07
2018-03-26T15:42:20.677Z,1003.01
2018-03-26T15:43:20.664Z,1003.07
2018-03-26T15:44:20.686Z,1003.04
2018-03-26T15:45:21.025Z,1003.24
2018-03-26T15:46:20.644Z,1003.37
2018-03-26T15:47:20.629Z,1003.14
2018-03-26T15:48:20.718Z,1003.11
2018-03-26T15:49:20.643Z,1003.05
2018-03-26T15:50:20.620Z,1003.04
2018-03-26T15:51:20.621Z,1003.01
2018-03-26T15:52:20.605Z,1003.01
2018-03-26T15:53:20.583Z,1003.22
2018-03-26T15:54:20.581Z,1003.08
2018-03-26T15:55:20.583Z,1003.07
2018-03-26T15:56:20.607Z,1003.13
2018-03-26T15:57:20.552Z,1003.06
2018-03-26T15:58:20.540Z,1003.07
2018-03-26T15:59:20.515Z,1003.08
2018-03-26T16:00:20.523Z,1003.08
2018-03-26T16:01:20.556Z,1003.10
2018-03-26T16:02:20.499Z,1003.09
2018-03-26T16:03:20.495Z,1003.08
2018-03-26T16:04:20.477Z,1003.10
2018-03-26T16:05:20.481Z,1003.14
2018-03-26T16:06:20.457Z,1003.10
2018-03-26T16:07:20.476Z,1003.15
2018-03-26T16:08:20.452Z,1003.08
2018-03-26T16:09:20.503Z,1003.15
2018-03-26T16:10:20.417Z,1003.10
2018-03-26T16:11:20.408Z,1003.14
2018-03-26T16:12:20.392Z,1003.11
2018-03-26T16:13:20.368Z,1003.09
2018-03-26T16:14:20.360Z,1003.06
2018-03-26T16:15:20.401Z,1003.07
2018-03-26T16:16:20.349Z,1003.12
2018-03-26T16:17:20.336Z,1003.10
2018-03-26T16:18:20.329Z,1003.11
2018-03-26T16:19:20.350Z,1003.05
2018-03-26T16:20:20.300Z,1003.08
2018-03-26T16:21:20.305Z,1003.10
2018-03-26T16:22:20.271Z,1003.03
2018-03-26T16:23:20.277Z,1003.06
2018-03-26T16:24:20.272Z,1003.08
2018-03-26T16:25:20.259Z,1003.10
2018-03-26T16:26:20.277Z,1003.14
2018-03-26T16:27:21.068Z,1003.07
2018-03-26T16:28:20.192Z,1003.05
2018-03-26T16:29:20.214Z,1003.07
2018-03-26T16:30:20.187Z,1003.03
2018-03-26T16:31:20.522Z,1003.03
2018-03-26T16:32:20.163Z,1003.04
2018-03-26T16:33:20.133Z,1003.02
2018-03-26T16:34:20.126Z,1003.03
2018-03-26T16:35:20.124Z,1003.04
2018-03-26T16:36:20.131Z,1003.00
2018-03-26T16:37:20.150Z,1002.99
2018-03-26T16:38:20.080Z,1003.01
2018-03-26T16:39:20.064Z,1003.01
2018-03-26T16:40:20.057Z,1002.97
2018-03-26T16:41:20.059Z,1002.98
2018-03-26T16:42:20.022Z,1002.95
2018-03-26T16:43:20.037Z,1002.96
2018-03-26T16:44:20.011Z,1003.00
2018-03-26T16:45:19.987Z,1003.01
2018-03-26T16:46:19.993Z,1003.00
2018-03-26T16:47:19.970Z,1002.99
2018-03-26T16:48:19.985Z,1002.97
2018-03-26T16:49:19.959Z,1002.99
2018-03-26T16:50:19.939Z,1003.02
2018-03-26T16:51:19.908Z,1003.03
2018-03-26T16:52:19.897Z,1003.04
2018-03-26T16:53:19.896Z,1003.03
2018-03-26T16:54:19.878Z,1003.01
2018-03-26T16:55:19.871Z,1003.00
2018-03-26T16:56:19.858Z,1002.99
2018-03-26T16:57:19.885Z,1003.00
2018-03-26T16:58:19.846Z,1002.98
2018-03-26T16:59:19.809Z,1002.96
2018-03-26T17:00:19.809Z,1002.96
2018-03-26T17:01:19.803Z,1002.99
2018-03-26T17:02:19.829Z,1003.00
2018-03-26T17:03:19.770Z,1003.02
2018-03-26T17:04:19.753Z,1003.00
2018-03-26T17:05:19.891Z,1002.99
2018-03-26T17:06:19.732Z,1003.04
2018-03-26T17:07:19.713Z,1003.00
2018-03-26T17:08:19.702Z,1003.00
2018-03-26T17:09:19.680Z,1002.98
2018-03-26T17:10:19.672Z,1002.97
2018-03-26T17:11:20.607Z,1002.99
2018-03-26T17:12:19.642Z,1002.97
2018-03-26T17:13:19.702Z,1002.94
2018-03-26T17:14:19.603Z,1002.93
2018-03-26T17:15:19.603Z,1002.95
2018-03-26T17:16:19.609Z,1002.95
2018-03-26T17:17:19.566Z,1003.04
2018-03-26T17:18:19.569Z,1002.99
2018-03-26T17:19:19.604Z,1002.99
2018-03-26T17:20:19.521Z,1002.97
2018-03-26T17:21:19.522Z,1002.99
2018-03-26T17:22:19.514Z,1003.02
2018-03-26T17:23:19.497Z,1003.00
2018-03-26T17:24:19.472Z,1003.00
2018-03-26T17:25:20.530Z,1002.95
2018-03-26T17:26:19.461Z,1002.99
2018-03-26T17:27:19.454Z,1002.96
2018-03-26T17:28:19.425Z,1003.02
2018-03-26T17:29:19.456Z,1002.99
2018-03-26T17:30:19.392Z,1003.05
2018-03-26T17:31:19.396Z,1003.04
2018-03-26T17:32:19.393Z,1003.06
2018-03-26T17:33:19.343Z,1003.03
2018-03-26T17:34:19.373Z,1003.05
2018-03-26T17:35:19.322Z,1003.06
2018-03-26T17:36:19.340Z,1003.05
2018-03-26T17:37:19.312Z,1003.01
2018-03-26T17:38:19.312Z,1003.00
2018-03-26T17:39:19.275Z,1003.01
2018-03-26T17:40:19.309Z,1003.02
2018-03-26T17:41:19.269Z,1003.03
2018-03-26T17:42:19.210Z,1003.02
2018-03-26T17:43:19.208Z,1003.07
2018-03-26T17:44:19.191Z,1003.05
2018-03-26T17:45:19.189Z,1003.07
2018-03-26T17:46:19.192Z,1003.08